Etusivu
METAR-TAF:

METAR-TAF

Lentoasemat :

Ivalo, Suomi

Ivalon lentoasema

Leveyspiiri: 68-37N, Pituuspiiri: 027-25E, korkeus merenpinnasta: 147 m

Tämänhetkinen sää

Tämä raportti tehtiin 14 minuuttia sitten, kello 04.50 UTC
Tuuli 10 kn pohjoisen/luoteesta, vaihdellen lännen/luoteen ja pohjoisen välillä
Lämpötila 2°C
Kosteus 69%
Ilmanpaine 1010 hPa
Näkyvyys 10 km tai enemmän
Hajonneita pilviä 4800 ft:n korkeudessa

METAR: EFIV 230450Z AUTO 33010KT 300V360 9999 BKN048 02/M03 Q1010

Aika: 08:04 (05:04 UTC)

Sääennuste

Tämä raportti tehtiin 17 tuntia ja 42 minuuttia sitten, kello 11.22 UTC
Ennuste voimassa 22. päivästä klo 12 UTC - 22. päivään klo 16 UTC
Tuuli 8 kn lännestä/luoteesta
Näkyvyys 10 km tai enemmän
Hajonneita pilviä 4500 ft:n korkeudessa

TAF: EFIV 221122Z 2212/2216 29008KT 9999 BKN045

Säähavainnot ja -ennusteet yli 4000 lentoasemalta (METAR- ja TAF-raportit).

Käytössä olevat sääasemat on merkitty karttaan keltaisilla ja punaisilla pisteillä.

Aseta hiiri pisteen päälle nähdäksesi sääaseman nimen.

Klikkaa sitten nähdäksesi säähavainnot ja -ennusteet.

Kartan vaihtaminen: klikkaa mustalla rastilla varustettuja vihreitä pisteitä, niin voit zoomata sisään; viivalla varustettua vihreää pistettä, niin voit zoomata ulos tai vihreitä nuolia, niin pääset viereisille kartoille.


METAR-TAF: